Edgewood, New Mexico
Current Conditions -  °F | °C
As of 3:15 PM on Friday 31 Oct 2014 (Local Time) from K0E0 Reporting Station
Clear Clear  
Wind Chill: 65°   Ceiling: Unl
Heat Index: 65°   Visibility: 10mi
Dew Point: 29°   Wind: 8mph
Humidity: 25%   Direction: 130°SE
Pressure: 30.32"   Gusts: 17mph
Location:  35.06°N, 106.19°W
Report Text: K0E0 312115Z AUTO 13007G15KT 10SM CLR 19/M02 A3032 RMK AO2 T01861019
Loading
Personal Weather Stations






























Interactive Weather Map
Tropical Storm Tracking
New forecast layout! Learn more

10-Day Weather Forecast

Advertisements
Track Severe Weather on mobile